San Diego, CA

8:48 AM PDT on August 03, 2015 (GMT -0700)
Stonebridge | | Change Station
CLOSE
Current Station
Personal Weather Station
Location: San Diego, CA
Elevation: 906 ft
Nearby Weather Stations

Elev 906 ft 32.92 °N, 117.02 °W | Updated 13 seconds ago

Overcast
Overcast
66.2 °F
Feels Like 66.2 °F
N
0.0
Wind Variable Wind from South
Gusts 1.0 mph

Today
High -- | Low -- °F
--% Chance of Precip.
Yesterday
High -- | Low -- °F
Precip. -- in
6:03 AM 7:45 PM
Waning Gibbous, 86% visible
Pressure 29.89 in
Visibility 9.0 miles
Clouds Overcast 900 ft
Dew Point 64 °F
Humidity 92%
Rainfall 0.00 in
Snow Depth Not available.
UV 1 out of 12
Pollen 4.60 out of 12
Air Quality Not available.
Flu Activity Not available.
METAR KNKX 031455Z 10004KT 9SM OVC009 21/17 A2991 RMK AO2 SLP122 T02110167 51009 $

More Conditions Fewer Conditions

Pressure 29.89 in
Visibility 9.0 miles
Clouds Overcast 900 ft
Dew Point 64 °F
Humidity 92%
Rainfall 0.00 in
Snow Depth Not available.
UV 1 out of 12
Pollen 4.60 out of 12
Air Quality Not available.
Flu Activity Not available.
METAR KNKX 031455Z 10004KT 9SM OVC009 21/17 A2991 RMK AO2 SLP122 T02110167 51009 $

More Conditions Fewer Conditions

10-Day Weather Forecast

×

Almanac

Astronomy

Aug. 03, 2015 Rise Set
Actual Time
Civil Twilight
Nautical Twilight
Astronomical Twilight
Moon
Length of Visible Light
Length of Day
Tomorrow will be .
, % of the Moon is Illuminated

Today's Extremes

State Highs State Lows

Community

WunderPhotos

Upload Photos

1,843,645 photos uploaded!

WunderBlogs® & News

Nearby

Air Quality

  Air Quality AQ Index Pollutant
Not available.

Snow Depth

Station Depth Elevation

Earthquake Activity

City Distance Mag. Time & Date
Minimum magnitude displayed is 2.5.

Coastal Water Temperatures

Place Temperature

Stations

Nearby Weather Stations

Station Location Temp. Windchill Dew Point Humidity Wind Precip. Elev Updated Type